sensor_id;sensor_type;location;lat;lon;timestamp;P1;durP1;ratioP1;P2;durP2;ratioP2
42094;SDS011;27753;55.724;37.612;2024-01-15T00:00:41;17.13;;;10.73;;
42094;SDS011;27753;55.724;37.612;2024-01-15T00:03:07;19.90;;;10.57;;
42094;SDS011;27753;55.724;37.612;2024-01-15T00:05:34;18.55;;;10.82;;
42094;SDS011;27753;55.724;37.612;2024-01-15T00:08:00;17.90;;;10.23;;
42094;SDS011;27753;55.724;37.612;2024-01-15T00:10:26;20.40;;;8.48;;
42094;SDS011;27753;55.724;37.612;2024-01-15T00:12:52;13.13;;;6.78;;
42094;SDS011;27753;55.724;37.612;2024-01-15T00:15:18;22.15;;;13.18;;
42094;SDS011;27753;55.724;37.612;2024-01-15T00:17:43;15.75;;;10.38;;
42094;SDS011;27753;55.724;37.612;2024-01-15T00:20:09;19.70;;;11.93;;
42094;SDS011;27753;55.724;37.612;2024-01-15T00:22:36;20.27;;;8.40;;
42094;SDS011;27753;55.724;37.612;2024-01-15T00:25:02;17.38;;;11.30;;
42094;SDS011;27753;55.724;37.612;2024-01-15T00:27:28;13.80;;;9.02;;
42094;SDS011;27753;55.724;37.612;2024-01-15T00:29:54;13.20;;;9.38;;
42094;SDS011;27753;55.724;37.612;2024-01-15T00:32:20;19.30;;;10.93;;
42094;SDS011;27753;55.724;37.612;2024-01-15T00:34:46;16.63;;;10.68;;
42094;SDS011;27753;55.724;37.612;2024-01-15T00:37:12;14.43;;;7.95;;
42094;SDS011;27753;55.724;37.612;2024-01-15T00:39:38;23.17;;;11.55;;
42094;SDS011;27753;55.724;37.612;2024-01-15T00:42:04;15.05;;;9.82;;
42094;SDS011;27753;55.724;37.612;2024-01-15T00:44:30;14.02;;;9.38;;
42094;SDS011;27753;55.724;37.612;2024-01-15T00:46:56;15.70;;;10.75;;
42094;SDS011;27753;55.724;37.612;2024-01-15T00:49:21;19.42;;;11.55;;
42094;SDS011;27753;55.724;37.612;2024-01-15T00:51:47;23.55;;;12.23;;
42094;SDS011;27753;55.724;37.612;2024-01-15T00:54:13;19.20;;;12.07;;
42094;SDS011;27753;55.724;37.612;2024-01-15T00:56:39;18.23;;;11.50;;
42094;SDS011;27753;55.724;37.612;2024-01-15T00:59:05;20.05;;;12.93;;
42094;SDS011;27753;55.724;37.612;2024-01-15T01:01:31;17.23;;;9.57;;
42094;SDS011;27753;55.724;37.612;2024-01-15T01:03:57;19.95;;;10.13;;
42094;SDS011;27753;55.724;37.612;2024-01-15T01:06:23;18.17;;;9.88;;
42094;SDS011;27753;55.724;37.612;2024-01-15T01:08:49;20.45;;;12.35;;
42094;SDS011;27753;55.724;37.612;2024-01-15T01:11:15;17.98;;;11.90;;
42094;SDS011;27753;55.724;37.612;2024-01-15T01:13:41;20.10;;;11.63;;
42094;SDS011;27753;55.724;37.612;2024-01-15T01:16:07;18.02;;;9.90;;
42094;SDS011;27753;55.724;37.612;2024-01-15T01:18:33;17.10;;;10.25;;
42094;SDS011;27753;55.724;37.612;2024-01-15T01:21:00;20.27;;;11.70;;
42094;SDS011;27753;55.724;37.612;2024-01-15T01:23:26;25.13;;;13.25;;
42094;SDS011;27753;55.724;37.612;2024-01-15T01:25:51;21.88;;;13.75;;
42094;SDS011;27753;55.724;37.612;2024-01-15T01:28:17;20.88;;;12.90;;
42094;SDS011;27753;55.724;37.612;2024-01-15T01:30:43;19.40;;;10.68;;
42094;SDS011;27753;55.724;37.612;2024-01-15T01:33:09;17.70;;;11.50;;
42094;SDS011;27753;55.724;37.612;2024-01-15T01:35:35;19.23;;;11.55;;
42094;SDS011;27753;55.724;37.612;2024-01-15T01:38:01;17.70;;;11.30;;
42094;SDS011;27753;55.724;37.612;2024-01-15T01:40:27;24.63;;;12.90;;
42094;SDS011;27753;55.724;37.612;2024-01-15T01:42:53;16.45;;;10.30;;
42094;SDS011;27753;55.724;37.612;2024-01-15T01:45:19;25.38;;;13.60;;
42094;SDS011;27753;55.724;37.612;2024-01-15T01:47:45;21.30;;;13.35;;
42094;SDS011;27753;55.724;37.612;2024-01-15T01:50:10;20.02;;;12.20;;
42094;SDS011;27753;55.724;37.612;2024-01-15T01:52:37;16.35;;;10.90;;
42094;SDS011;27753;55.724;37.612;2024-01-15T01:55:04;22.10;;;13.18;;
42094;SDS011;27753;55.724;37.612;2024-01-15T01:57:31;17.42;;;10.60;;
42094;SDS011;27753;55.724;37.612;2024-01-15T01:59:59;22.88;;;11.73;;
42094;SDS011;27753;55.724;37.612;2024-01-15T02:02:26;22.98;;;12.98;;
42094;SDS011;27753;55.724;37.612;2024-01-15T02:04:52;20.33;;;13.43;;
42094;SDS011;27753;55.724;37.612;2024-01-15T02:07:18;20.17;;;12.75;;
42094;SDS011;27753;55.724;37.612;2024-01-15T02:09:44;22.05;;;12.32;;
42094;SDS011;27753;55.724;37.612;2024-01-15T02:12:10;27.10;;;13.68;;
42094;SDS011;27753;55.724;37.612;2024-01-15T02:14:36;23.73;;;12.57;;
42094;SDS011;27753;55.724;37.612;2024-01-15T02:17:02;22.20;;;13.80;;
42094;SDS011;27753;55.724;37.612;2024-01-15T02:19:28;16.27;;;11.18;;
42094;SDS011;27753;55.724;37.612;2024-01-15T02:21:54;16.92;;;10.52;;
42094;SDS011;27753;55.724;37.612;2024-01-15T02:24:20;15.50;;;9.38;;
42094;SDS011;27753;55.724;37.612;2024-01-15T02:26:46;18.90;;;12.10;;
42094;SDS011;27753;55.724;37.612;2024-01-15T02:29:12;19.85;;;11.15;;
42094;SDS011;27753;55.724;37.612;2024-01-15T02:31:40;22.05;;;11.82;;
42094;SDS011;27753;55.724;37.612;2024-01-15T02:34:06;19.10;;;11.82;;
42094;SDS011;27753;55.724;37.612;2024-01-15T02:36:32;40.83;;;14.27;;
42094;SDS011;27753;55.724;37.612;2024-01-15T02:38:57;21.17;;;11.77;;
42094;SDS011;27753;55.724;37.612;2024-01-15T02:41:25;16.30;;;10.55;;
42094;SDS011;27753;55.724;37.612;2024-01-15T02:43:51;21.77;;;13.10;;
42094;SDS011;27753;55.724;37.612;2024-01-15T02:46:17;19.85;;;11.90;;
42094;SDS011;27753;55.724;37.612;2024-01-15T02:48:43;21.08;;;11.82;;
42094;SDS011;27753;55.724;37.612;2024-01-15T02:51:09;22.95;;;14.30;;
42094;SDS011;27753;55.724;37.612;2024-01-15T02:53:35;18.95;;;11.82;;
42094;SDS011;27753;55.724;37.612;2024-01-15T02:56:02;28.17;;;14.05;;
42094;SDS011;27753;55.724;37.612;2024-01-15T02:58:27;21.23;;;13.10;;
42094;SDS011;27753;55.724;37.612;2024-01-15T03:00:53;20.00;;;12.68;;
42094;SDS011;27753;55.724;37.612;2024-01-15T03:03:19;26.45;;;13.88;;
42094;SDS011;27753;55.724;37.612;2024-01-15T03:05:45;20.23;;;12.65;;
42094;SDS011;27753;55.724;37.612;2024-01-15T03:08:12;22.98;;;11.75;;
42094;SDS011;27753;55.724;37.612;2024-01-15T03:10:38;26.35;;;14.30;;
42094;SDS011;27753;55.724;37.612;2024-01-15T03:13:03;24.52;;;13.85;;
42094;SDS011;27753;55.724;37.612;2024-01-15T03:15:29;21.55;;;14.55;;
42094;SDS011;27753;55.724;37.612;2024-01-15T03:17:55;22.55;;;14.35;;
42094;SDS011;27753;55.724;37.612;2024-01-15T03:20:21;26.90;;;15.48;;
42094;SDS011;27753;55.724;37.612;2024-01-15T03:22:47;28.77;;;15.43;;
42094;SDS011;27753;55.724;37.612;2024-01-15T03:25:13;27.13;;;13.13;;
42094;SDS011;27753;55.724;37.612;2024-01-15T03:27:39;23.33;;;13.40;;
42094;SDS011;27753;55.724;37.612;2024-01-15T03:30:05;24.58;;;14.90;;
42094;SDS011;27753;55.724;37.612;2024-01-15T03:32:31;22.75;;;13.55;;
42094;SDS011;27753;55.724;37.612;2024-01-15T03:34:57;25.30;;;14.10;;
42094;SDS011;27753;55.724;37.612;2024-01-15T03:37:23;25.50;;;12.27;;
42094;SDS011;27753;55.724;37.612;2024-01-15T03:39:49;22.95;;;13.82;;
42094;SDS011;27753;55.724;37.612;2024-01-15T03:42:15;26.30;;;14.60;;
42094;SDS011;27753;55.724;37.612;2024-01-15T03:44:41;21.20;;;13.63;;
42094;SDS011;27753;55.724;37.612;2024-01-15T03:47:06;27.50;;;15.20;;
42094;SDS011;27753;55.724;37.612;2024-01-15T03:49:32;26.98;;;15.25;;
42094;SDS011;27753;55.724;37.612;2024-01-15T03:51:58;22.52;;;16.10;;
42094;SDS011;27753;55.724;37.612;2024-01-15T03:54:24;27.15;;;14.07;;
42094;SDS011;27753;55.724;37.612;2024-01-15T03:56:50;23.27;;;14.27;;
42094;SDS011;27753;55.724;37.612;2024-01-15T03:59:16;26.23;;;13.85;;
42094;SDS011;27753;55.724;37.612;2024-01-15T04:01:47;20.98;;;12.90;;
42094;SDS011;27753;55.724;37.612;2024-01-15T04:04:15;25.90;;;14.57;;
42094;SDS011;27753;55.724;37.612;2024-01-15T04:06:40;23.85;;;14.27;;
42094;SDS011;27753;55.724;37.612;2024-01-15T04:09:06;24.20;;;14.65;;
42094;SDS011;27753;55.724;37.612;2024-01-15T04:11:41;22.85;;;13.43;;
42094;SDS011;27753;55.724;37.612;2024-01-15T04:14:19;19.45;;;13.32;;
42094;SDS011;27753;55.724;37.612;2024-01-15T04:16:44;21.27;;;11.85;;
42094;SDS011;27753;55.724;37.612;2024-01-15T04:19:10;24.35;;;14.50;;
42094;SDS011;27753;55.724;37.612;2024-01-15T04:21:36;26.00;;;14.93;;
42094;SDS011;27753;55.724;37.612;2024-01-15T04:24:02;26.17;;;17.05;;
42094;SDS011;27753;55.724;37.612;2024-01-15T04:26:28;24.63;;;13.38;;
42094;SDS011;27753;55.724;37.612;2024-01-15T04:28:54;19.10;;;12.90;;
42094;SDS011;27753;55.724;37.612;2024-01-15T04:31:21;26.92;;;16.33;;
42094;SDS011;27753;55.724;37.612;2024-01-15T04:33:47;26.20;;;15.30;;
42094;SDS011;27753;55.724;37.612;2024-01-15T04:36:13;21.50;;;14.73;;
42094;SDS011;27753;55.724;37.612;2024-01-15T04:38:39;25.70;;;14.48;;
42094;SDS011;27753;55.724;37.612;2024-01-15T04:41:05;28.25;;;14.98;;
42094;SDS011;27753;55.724;37.612;2024-01-15T04:43:33;28.75;;;15.75;;
42094;SDS011;27753;55.724;37.612;2024-01-15T04:45:59;24.45;;;13.85;;
42094;SDS011;27753;55.724;37.612;2024-01-15T04:48:25;25.30;;;15.68;;
42094;SDS011;27753;55.724;37.612;2024-01-15T04:50:51;29.13;;;14.88;;
42094;SDS011;27753;55.724;37.612;2024-01-15T04:53:17;23.42;;;14.13;;
42094;SDS011;27753;55.724;37.612;2024-01-15T04:55:43;29.17;;;15.88;;
42094;SDS011;27753;55.724;37.612;2024-01-15T04:58:09;27.05;;;14.93;;
42094;SDS011;27753;55.724;37.612;2024-01-15T05:00:34;24.10;;;15.00;;
42094;SDS011;27753;55.724;37.612;2024-01-15T05:03:00;27.67;;;14.02;;
42094;SDS011;27753;55.724;37.612;2024-01-15T05:05:26;24.52;;;16.10;;
42094;SDS011;27753;55.724;37.612;2024-01-15T05:07:52;30.80;;;15.38;;
42094;SDS011;27753;55.724;37.612;2024-01-15T05:10:18;23.95;;;15.95;;
42094;SDS011;27753;55.724;37.612;2024-01-15T05:12:44;27.10;;;15.25;;
42094;SDS011;27753;55.724;37.612;2024-01-15T05:15:10;23.50;;;14.73;;
42094;SDS011;27753;55.724;37.612;2024-01-15T05:17:36;29.02;;;14.98;;
42094;SDS011;27753;55.724;37.612;2024-01-15T05:20:02;28.73;;;15.70;;
42094;SDS011;27753;55.724;37.612;2024-01-15T05:22:28;20.25;;;12.90;;
42094;SDS011;27753;55.724;37.612;2024-01-15T05:24:54;23.42;;;14.90;;
42094;SDS011;27753;55.724;37.612;2024-01-15T05:27:20;24.42;;;15.00;;
42094;SDS011;27753;55.724;37.612;2024-01-15T05:29:51;27.05;;;14.60;;
42094;SDS011;27753;55.724;37.612;2024-01-15T05:32:17;29.67;;;17.75;;
42094;SDS011;27753;55.724;37.612;2024-01-15T05:34:43;30.58;;;15.95;;
42094;SDS011;27753;55.724;37.612;2024-01-15T05:37:09;26.85;;;15.82;;
42094;SDS011;27753;55.724;37.612;2024-01-15T05:39:35;22.90;;;14.30;;
42094;SDS011;27753;55.724;37.612;2024-01-15T05:42:02;30.97;;;17.73;;
42094;SDS011;27753;55.724;37.612;2024-01-15T05:44:28;24.08;;;16.90;;
42094;SDS011;27753;55.724;37.612;2024-01-15T05:46:56;23.73;;;13.43;;
42094;SDS011;27753;55.724;37.612;2024-01-15T05:49:22;29.77;;;17.48;;
42094;SDS011;27753;55.724;37.612;2024-01-15T05:51:48;29.80;;;14.80;;
42094;SDS011;27753;55.724;37.612;2024-01-15T05:54:14;28.33;;;18.05;;
42094;SDS011;27753;55.724;37.612;2024-01-15T05:56:40;25.13;;;15.73;;
42094;SDS011;27753;55.724;37.612;2024-01-15T05:59:05;24.05;;;14.68;;
42094;SDS011;27753;55.724;37.612;2024-01-15T06:01:31;30.35;;;15.68;;
42094;SDS011;27753;55.724;37.612;2024-01-15T06:03:57;28.67;;;16.50;;
42094;SDS011;27753;55.724;37.612;2024-01-15T06:06:23;32.60;;;17.15;;
42094;SDS011;27753;55.724;37.612;2024-01-15T06:08:49;23.10;;;13.27;;
42094;SDS011;27753;55.724;37.612;2024-01-15T06:11:15;27.88;;;16.42;;
42094;SDS011;27753;55.724;37.612;2024-01-15T06:13:41;30.40;;;18.30;;
42094;SDS011;27753;55.724;37.612;2024-01-15T06:16:15;31.58;;;16.70;;
42094;SDS011;27753;55.724;37.612;2024-01-15T06:18:44;23.30;;;16.42;;
42094;SDS011;27753;55.724;37.612;2024-01-15T06:21:10;19.42;;;14.02;;
42094;SDS011;27753;55.724;37.612;2024-01-15T06:23:37;29.58;;;17.10;;
42094;SDS011;27753;55.724;37.612;2024-01-15T06:26:04;35.88;;;16.73;;
42094;SDS011;27753;55.724;37.612;2024-01-15T06:28:30;31.20;;;17.30;;
42094;SDS011;27753;55.724;37.612;2024-01-15T06:30:56;29.48;;;15.52;;
42094;SDS011;27753;55.724;37.612;2024-01-15T06:33:23;25.65;;;14.70;;
42094;SDS011;27753;55.724;37.612;2024-01-15T06:35:49;30.55;;;18.27;;
42094;SDS011;27753;55.724;37.612;2024-01-15T06:38:15;31.45;;;18.13;;
42094;SDS011;27753;55.724;37.612;2024-01-15T06:40:41;33.83;;;19.75;;
42094;SDS011;27753;55.724;37.612;2024-01-15T06:43:13;27.63;;;18.48;;
42094;SDS011;27753;55.724;37.612;2024-01-15T06:45:43;29.63;;;17.60;;
42094;SDS011;27753;55.724;37.612;2024-01-15T06:48:09;29.30;;;18.37;;
42094;SDS011;27753;55.724;37.612;2024-01-15T06:50:37;28.50;;;14.45;;
42094;SDS011;27753;55.724;37.612;2024-01-15T06:53:03;30.20;;;16.95;;
42094;SDS011;27753;55.724;37.612;2024-01-15T06:55:29;22.98;;;14.35;;
42094;SDS011;27753;55.724;37.612;2024-01-15T06:57:55;30.75;;;16.67;;
42094;SDS011;27753;55.724;37.612;2024-01-15T07:00:21;31.40;;;16.48;;
42094;SDS011;27753;55.724;37.612;2024-01-15T07:02:47;30.30;;;16.90;;
42094;SDS011;27753;55.724;37.612;2024-01-15T07:05:13;31.55;;;17.60;;
42094;SDS011;27753;55.724;37.612;2024-01-15T07:07:39;32.40;;;18.38;;
42094;SDS011;27753;55.724;37.612;2024-01-15T07:10:10;31.75;;;18.58;;
42094;SDS011;27753;55.724;37.612;2024-01-15T07:12:46;31.67;;;17.95;;
42094;SDS011;27753;55.724;37.612;2024-01-15T07:15:12;24.23;;;16.92;;
42094;SDS011;27753;55.724;37.612;2024-01-15T07:17:38;33.65;;;19.35;;
42094;SDS011;27753;55.724;37.612;2024-01-15T07:20:06;35.08;;;17.95;;
42094;SDS011;27753;55.724;37.612;2024-01-15T07:22:38;28.10;;;16.67;;
42094;SDS011;27753;55.724;37.612;2024-01-15T07:25:04;27.00;;;17.80;;
42094;SDS011;27753;55.724;37.612;2024-01-15T07:27:32;34.35;;;18.73;;
42094;SDS011;27753;55.724;37.612;2024-01-15T07:29:58;28.55;;;17.25;;
42094;SDS011;27753;55.724;37.612;2024-01-15T07:32:24;29.83;;;17.63;;
42094;SDS011;27753;55.724;37.612;2024-01-15T07:34:49;30.80;;;18.70;;
42094;SDS011;27753;55.724;37.612;2024-01-15T07:37:15;32.65;;;17.38;;
42094;SDS011;27753;55.724;37.612;2024-01-15T07:39:41;28.52;;;17.20;;
42094;SDS011;27753;55.724;37.612;2024-01-15T07:42:07;29.13;;;16.35;;
42094;SDS011;27753;55.724;37.612;2024-01-15T07:44:33;28.55;;;17.50;;
42094;SDS011;27753;55.724;37.612;2024-01-15T07:46:59;21.50;;;15.13;;
42094;SDS011;27753;55.724;37.612;2024-01-15T07:49:25;32.28;;;17.02;;
42094;SDS011;27753;55.724;37.612;2024-01-15T07:51:52;23.48;;;17.85;;
42094;SDS011;27753;55.724;37.612;2024-01-15T07:54:18;29.50;;;17.23;;
42094;SDS011;27753;55.724;37.612;2024-01-15T07:56:53;26.80;;;16.83;;
42094;SDS011;27753;55.724;37.612;2024-01-15T07:59:24;28.13;;;18.73;;
42094;SDS011;27753;55.724;37.612;2024-01-15T08:01:51;23.15;;;14.38;;
42094;SDS011;27753;55.724;37.612;2024-01-15T08:04:17;23.75;;;15.88;;
42094;SDS011;27753;55.724;37.612;2024-01-15T08:06:44;32.22;;;18.42;;
42094;SDS011;27753;55.724;37.612;2024-01-15T08:09:12;33.60;;;18.10;;
42094;SDS011;27753;55.724;37.612;2024-01-15T08:11:39;27.48;;;16.10;;
42094;SDS011;27753;55.724;37.612;2024-01-15T08:14:06;31.23;;;18.10;;
42094;SDS011;27753;55.724;37.612;2024-01-15T08:16:32;30.42;;;18.75;;
42094;SDS011;27753;55.724;37.612;2024-01-15T08:18:58;31.40;;;19.55;;
42094;SDS011;27753;55.724;37.612;2024-01-15T08:21:24;33.22;;;19.42;;
42094;SDS011;27753;55.724;37.612;2024-01-15T08:23:50;38.25;;;21.42;;
42094;SDS011;27753;55.724;37.612;2024-01-15T08:26:17;30.95;;;19.42;;
42094;SDS011;27753;55.724;37.612;2024-01-15T08:28:43;32.50;;;19.45;;
42094;SDS011;27753;55.724;37.612;2024-01-15T08:31:08;32.05;;;17.58;;
42094;SDS011;27753;55.724;37.612;2024-01-15T08:33:34;35.95;;;18.58;;
42094;SDS011;27753;55.724;37.612;2024-01-15T08:36:01;35.78;;;24.38;;
42094;SDS011;27753;55.724;37.612;2024-01-15T08:38:27;29.65;;;17.55;;
42094;SDS011;27753;55.724;37.612;2024-01-15T08:40:53;29.30;;;14.68;;
42094;SDS011;27753;55.724;37.612;2024-01-15T08:43:21;30.25;;;19.45;;
42094;SDS011;27753;55.724;37.612;2024-01-15T08:45:47;30.73;;;16.75;;
42094;SDS011;27753;55.724;37.612;2024-01-15T08:48:13;27.80;;;15.63;;
42094;SDS011;27753;55.724;37.612;2024-01-15T08:50:39;31.95;;;21.08;;
42094;SDS011;27753;55.724;37.612;2024-01-15T08:53:05;30.95;;;17.90;;
42094;SDS011;27753;55.724;37.612;2024-01-15T08:55:31;30.48;;;17.35;;
42094;SDS011;27753;55.724;37.612;2024-01-15T08:57:57;34.83;;;18.17;;
42094;SDS011;27753;55.724;37.612;2024-01-15T09:00:22;32.55;;;18.73;;
42094;SDS011;27753;55.724;37.612;2024-01-15T09:02:48;28.95;;;15.43;;
42094;SDS011;27753;55.724;37.612;2024-01-15T09:05:14;38.42;;;18.50;;
42094;SDS011;27753;55.724;37.612;2024-01-15T09:07:40;32.85;;;19.23;;
42094;SDS011;27753;55.724;37.612;2024-01-15T09:10:06;33.10;;;18.92;;
42094;SDS011;27753;55.724;37.612;2024-01-15T09:12:32;38.28;;;19.55;;
42094;SDS011;27753;55.724;37.612;2024-01-15T09:14:58;33.63;;;18.33;;
42094;SDS011;27753;55.724;37.612;2024-01-15T09:17:24;29.08;;;17.90;;
42094;SDS011;27753;55.724;37.612;2024-01-15T09:19:50;21.63;;;15.48;;
42094;SDS011;27753;55.724;37.612;2024-01-15T09:22:16;30.27;;;17.95;;
42094;SDS011;27753;55.724;37.612;2024-01-15T09:24:45;31.50;;;17.70;;
42094;SDS011;27753;55.724;37.612;2024-01-15T09:27:12;37.88;;;19.90;;
42094;SDS011;27753;55.724;37.612;2024-01-15T09:29:38;26.73;;;17.90;;
42094;SDS011;27753;55.724;37.612;2024-01-15T09:32:07;29.23;;;19.23;;
42094;SDS011;27753;55.724;37.612;2024-01-15T09:34:33;26.38;;;15.18;;
42094;SDS011;27753;55.724;37.612;2024-01-15T09:37:00;23.85;;;14.25;;
42094;SDS011;27753;55.724;37.612;2024-01-15T09:39:26;26.95;;;16.38;;
42094;SDS011;27753;55.724;37.612;2024-01-15T09:41:53;30.52;;;18.17;;
42094;SDS011;27753;55.724;37.612;2024-01-15T09:44:20;27.38;;;17.77;;
42094;SDS011;27753;55.724;37.612;2024-01-15T09:46:46;29.17;;;17.27;;
42094;SDS011;27753;55.724;37.612;2024-01-15T09:49:15;33.35;;;19.25;;
42094;SDS011;27753;55.724;37.612;2024-01-15T09:51:42;23.88;;;15.70;;
42094;SDS011;27753;55.724;37.612;2024-01-15T09:54:09;24.73;;;15.32;;
42094;SDS011;27753;55.724;37.612;2024-01-15T09:56:35;21.43;;;13.43;;
42094;SDS011;27753;55.724;37.612;2024-01-15T09:59:02;27.42;;;16.83;;
42094;SDS011;27753;55.724;37.612;2024-01-15T10:01:31;22.10;;;13.10;;
42094;SDS011;27753;55.724;37.612;2024-01-15T10:03:57;32.50;;;16.70;;
42094;SDS011;27753;55.724;37.612;2024-01-15T10:06:27;23.52;;;15.57;;
42094;SDS011;27753;55.724;37.612;2024-01-15T10:08:53;24.23;;;13.50;;
42094;SDS011;27753;55.724;37.612;2024-01-15T10:11:21;28.65;;;16.15;;
42094;SDS011;27753;55.724;37.612;2024-01-15T10:13:47;22.75;;;14.02;;
42094;SDS011;27753;55.724;37.612;2024-01-15T10:16:17;25.25;;;17.23;;
42094;SDS011;27753;55.724;37.612;2024-01-15T10:18:43;26.30;;;14.15;;
42094;SDS011;27753;55.724;37.612;2024-01-15T10:21:08;28.83;;;17.25;;
42094;SDS011;27753;55.724;37.612;2024-01-15T10:23:34;19.90;;;13.48;;
42094;SDS011;27753;55.724;37.612;2024-01-15T10:26:01;26.93;;;16.47;;
42094;SDS011;27753;55.724;37.612;2024-01-15T10:28:28;24.20;;;15.30;;
42094;SDS011;27753;55.724;37.612;2024-01-15T10:30:56;23.98;;;15.63;;
42094;SDS011;27753;55.724;37.612;2024-01-15T10:33:26;23.20;;;13.88;;
42094;SDS011;27753;55.724;37.612;2024-01-15T10:35:55;21.42;;;13.57;;
42094;SDS011;27753;55.724;37.612;2024-01-15T10:38:23;27.20;;;14.85;;
42094;SDS011;27753;55.724;37.612;2024-01-15T10:40:54;22.85;;;14.23;;
42094;SDS011;27753;55.724;37.612;2024-01-15T10:43:21;30.77;;;15.40;;
42094;SDS011;27753;55.724;37.612;2024-01-15T10:45:48;21.20;;;14.87;;
42094;SDS011;27753;55.724;37.612;2024-01-15T10:48:16;27.48;;;17.00;;
42094;SDS011;27753;55.724;37.612;2024-01-15T10:50:44;26.25;;;16.15;;
42094;SDS011;27753;55.724;37.612;2024-01-15T10:53:14;32.78;;;15.63;;
42094;SDS011;27753;55.724;37.612;2024-01-15T10:55:43;26.27;;;15.93;;
42094;SDS011;27753;55.724;37.612;2024-01-15T10:58:11;21.70;;;13.32;;
42094;SDS011;27753;55.724;37.612;2024-01-15T11:00:39;27.00;;;15.45;;
42094;SDS011;27753;55.724;37.612;2024-01-15T11:03:06;21.98;;;14.88;;
42094;SDS011;27753;55.724;37.612;2024-01-15T11:05:41;25.85;;;15.85;;
42094;SDS011;27753;55.724;37.612;2024-01-15T11:08:08;26.95;;;16.85;;
42094;SDS011;27753;55.724;37.612;2024-01-15T11:10:38;25.17;;;14.80;;
42094;SDS011;27753;55.724;37.612;2024-01-15T11:15:59;27.70;;;16.35;;
42094;SDS011;27753;55.724;37.612;2024-01-15T11:18:30;25.73;;;14.13;;
42094;SDS011;27753;55.724;37.612;2024-01-15T11:23:45;27.52;;;15.75;;
42094;SDS011;27753;55.724;37.612;2024-01-15T11:29:06;28.65;;;15.65;;
42094;SDS011;27753;55.724;37.612;2024-01-15T11:34:08;21.45;;;11.05;;
42094;SDS011;27753;55.724;37.612;2024-01-15T11:39:39;27.65;;;15.93;;
42094;SDS011;27753;55.724;37.612;2024-01-15T11:42:07;29.83;;;17.15;;
42094;SDS011;27753;55.724;37.612;2024-01-15T11:44:34;25.70;;;14.27;;
42094;SDS011;27753;55.724;37.612;2024-01-15T11:47:03;26.65;;;16.10;;
42094;SDS011;27753;55.724;37.612;2024-01-15T11:52:34;25.33;;;15.55;;
42094;SDS011;27753;55.724;37.612;2024-01-15T11:57:50;23.67;;;15.35;;
42094;SDS011;27753;55.724;37.612;2024-01-15T12:00:19;22.83;;;15.10;;
42094;SDS011;27753;55.724;37.612;2024-01-15T12:02:46;25.65;;;15.20;;
42094;SDS011;27753;55.724;37.612;2024-01-15T12:05:14;30.08;;;17.50;;
42094;SDS011;27753;55.724;37.612;2024-01-15T12:07:42;29.02;;;17.08;;
42094;SDS011;27753;55.724;37.612;2024-01-15T12:10:10;27.50;;;15.65;;
42094;SDS011;27753;55.724;37.612;2024-01-15T12:15:15;24.95;;;16.25;;
42094;SDS011;27753;55.724;37.612;2024-01-15T12:17:41;29.80;;;18.92;;
42094;SDS011;27753;55.724;37.612;2024-01-15T12:20:07;28.23;;;17.25;;
42094;SDS011;27753;55.724;37.612;2024-01-15T12:22:33;23.73;;;15.55;;
42094;SDS011;27753;55.724;37.612;2024-01-15T12:25:03;28.20;;;15.35;;
42094;SDS011;27753;55.724;37.612;2024-01-15T12:27:29;27.23;;;16.52;;
42094;SDS011;27753;55.724;37.612;2024-01-15T12:29:55;28.63;;;14.45;;
42094;SDS011;27753;55.724;37.612;2024-01-15T12:32:23;27.00;;;16.95;;
42094;SDS011;27753;55.724;37.612;2024-01-15T12:34:50;27.80;;;16.20;;
42094;SDS011;27753;55.724;37.612;2024-01-15T12:37:19;21.20;;;14.85;;
42094;SDS011;27753;55.724;37.612;2024-01-15T12:39:45;26.88;;;15.48;;
42094;SDS011;27753;55.724;37.612;2024-01-15T12:42:11;26.05;;;17.48;;
42094;SDS011;27753;55.724;37.612;2024-01-15T12:44:39;26.35;;;16.98;;
42094;SDS011;27753;55.724;37.612;2024-01-15T12:47:05;29.95;;;18.05;;
42094;SDS011;27753;55.724;37.612;2024-01-15T12:49:31;35.72;;;17.85;;
42094;SDS011;27753;55.724;37.612;2024-01-15T12:51:57;31.30;;;18.02;;
42094;SDS011;27753;55.724;37.612;2024-01-15T12:54:24;45.08;;;18.15;;
42094;SDS011;27753;55.724;37.612;2024-01-15T12:56:51;27.10;;;18.23;;
42094;SDS011;27753;55.724;37.612;2024-01-15T12:59:18;24.33;;;15.15;;
42094;SDS011;27753;55.724;37.612;2024-01-15T13:01:44;29.58;;;18.38;;
42094;SDS011;27753;55.724;37.612;2024-01-15T13:06:37;34.80;;;18.33;;
42094;SDS011;27753;55.724;37.612;2024-01-15T13:09:03;21.63;;;14.63;;
42094;SDS011;27753;55.724;37.612;2024-01-15T13:11:32;28.50;;;16.35;;
42094;SDS011;27753;55.724;37.612;2024-01-15T13:13:58;35.97;;;19.05;;
42094;SDS011;27753;55.724;37.612;2024-01-15T13:16:24;33.90;;;20.35;;
42094;SDS011;27753;55.724;37.612;2024-01-15T13:18:53;33.22;;;18.42;;
42094;SDS011;27753;55.724;37.612;2024-01-15T13:21:20;32.45;;;18.52;;
42094;SDS011;27753;55.724;37.612;2024-01-15T13:23:46;35.33;;;18.60;;
42094;SDS011;27753;55.724;37.612;2024-01-15T13:26:12;31.80;;;19.17;;
42094;SDS011;27753;55.724;37.612;2024-01-15T13:28:38;34.95;;;21.58;;
42094;SDS011;27753;55.724;37.612;2024-01-15T13:31:03;32.60;;;18.23;;
42094;SDS011;27753;55.724;37.612;2024-01-15T13:33:30;27.17;;;16.30;;
42094;SDS011;27753;55.724;37.612;2024-01-15T13:35:56;33.60;;;19.48;;
42094;SDS011;27753;55.724;37.612;2024-01-15T13:38:22;38.75;;;19.83;;
42094;SDS011;27753;55.724;37.612;2024-01-15T13:40:49;34.67;;;20.60;;
42094;SDS011;27753;55.724;37.612;2024-01-15T13:43:15;30.75;;;18.65;;
42094;SDS011;27753;55.724;37.612;2024-01-15T13:45:44;36.95;;;19.17;;
42094;SDS011;27753;55.724;37.612;2024-01-15T13:48:11;35.85;;;19.02;;
42094;SDS011;27753;55.724;37.612;2024-01-15T13:50:37;28.75;;;16.38;;
42094;SDS011;27753;55.724;37.612;2024-01-15T13:53:03;33.95;;;18.92;;
42094;SDS011;27753;55.724;37.612;2024-01-15T13:55:29;33.72;;;17.60;;
42094;SDS011;27753;55.724;37.612;2024-01-15T13:57:55;31.10;;;16.73;;
42094;SDS011;27753;55.724;37.612;2024-01-15T14:00:21;31.58;;;17.65;;
42094;SDS011;27753;55.724;37.612;2024-01-15T14:02:48;33.63;;;20.17;;
42094;SDS011;27753;55.724;37.612;2024-01-15T14:05:14;30.08;;;16.83;;
42094;SDS011;27753;55.724;37.612;2024-01-15T14:07:41;37.08;;;19.10;;
42094;SDS011;27753;55.724;37.612;2024-01-15T14:10:08;28.52;;;18.08;;
42094;SDS011;27753;55.724;37.612;2024-01-15T14:12:35;33.53;;;17.67;;
42094;SDS011;27753;55.724;37.612;2024-01-15T14:15:05;33.35;;;19.27;;
42094;SDS011;27753;55.724;37.612;2024-01-15T14:17:31;30.92;;;17.98;;
42094;SDS011;27753;55.724;37.612;2024-01-15T14:19:57;34.50;;;17.73;;
42094;SDS011;27753;55.724;37.612;2024-01-15T14:22:23;37.38;;;19.33;;
42094;SDS011;27753;55.724;37.612;2024-01-15T14:24:49;32.75;;;18.38;;
42094;SDS011;27753;55.724;37.612;2024-01-15T14:27:16;33.13;;;19.80;;
42094;SDS011;27753;55.724;37.612;2024-01-15T14:29:42;39.10;;;21.17;;